Time;durP1;ratioP1;P1;durP2;ratioP2;P2;SDS_P1;SDS_P2;PMS_P1;PMS_P2;Temp;Humidity;BMP_temperature;BMP_pressure;BME280_temperature;BME280_humidity;BME280_pressure;Samples;Min_cycle;Max_cycle;Signal;HPM_P1;HPM_P2
2023/05/18 00:00:10;;;;;;;3.80;1.10;;;8.40;99.90;;;;;;4990875;28;20038;-49
2023/05/18 00:02:36;;;;;;;4.97;1.40;;;8.30;99.90;;;;;;4990991;28;20423;-49
2023/05/18 00:05:03;;;;;;;3.53;1.47;;;8.30;99.90;;;;;;4991047;28;20053;-48
2023/05/18 00:07:32;;;;;;;5.43;1.27;;;8.30;99.90;;;;;;4991014;28;20530;-48
2023/05/18 00:09:59;;;;;;;;;;;8.30;99.90;;;;;;4991831;28;20034;-50
2023/05/18 00:12:25;;;;;;;4.00;1.23;;;8.20;99.90;;;;;;4990529;28;19910;-49
2023/05/18 00:14:50;;;;;;;4.40;1.90;;;8.20;99.90;;;;;;4991992;28;20150;-48
2023/05/18 00:17:16;;;;;;;2.97;1.30;;;8.10;99.90;;;;;;4994529;28;20041;-48
2023/05/18 00:19:45;;;;;;;5.00;1.60;;;8.10;99.90;;;;;;4994289;28;20041;-51
2023/05/18 00:22:16;;;;;;;6.93;1.23;;;8.10;99.90;;;;;;4993971;28;20034;-48
2023/05/18 00:24:43;;;;;;;3.77;0.80;;;8.00;99.90;;;;;;4994381;28;20391;-50
2023/05/18 00:27:08;;;;;;;4.43;1.50;;;8.00;99.90;;;;;;4994349;28;20495;-50
2023/05/18 00:29:34;;;;;;;2.80;1.27;;;8.00;99.90;;;;;;4993027;28;20066;-50
2023/05/18 00:32:00;;;;;;;4.77;1.30;;;7.90;99.90;;;;;;4992946;28;20036;-51
2023/05/18 00:34:26;;;;;;;3.07;1.10;;;7.90;99.90;;;;;;4993952;28;20060;-51
2023/05/18 00:36:51;;;;;;;5.47;1.30;;;7.90;99.90;;;;;;4992917;28;20571;-49
2023/05/18 00:39:17;;;;;;;4.63;1.43;;;7.90;99.90;;;;;;4994306;28;20113;-49
2023/05/18 00:41:43;;;;;;;8.23;1.33;;;7.80;99.90;;;;;;4993700;28;20060;-48
2023/05/18 00:44:09;;;;;;;6.50;1.50;;;7.80;99.90;;;;;;4993806;28;20037;-49
2023/05/18 00:46:35;;;;;;;4.87;1.37;;;7.80;99.90;;;;;;4993896;28;20069;-49
2023/05/18 00:49:01;;;;;;;4.80;1.20;;;7.80;99.90;;;;;;4992605;28;20037;-48
2023/05/18 00:51:27;;;;;;;5.47;1.17;;;7.80;99.90;;;;;;4992295;28;20061;-48
2023/05/18 00:53:54;;;;;;;5.50;1.50;;;7.70;99.90;;;;;;4993679;28;20038;-48
2023/05/18 00:56:22;;;;;;;3.53;1.40;;;7.70;99.90;;;;;;4992428;28;20030;-48
2023/05/18 00:58:50;;;;;;;5.50;1.40;;;7.60;99.90;;;;;;4992487;28;20039;-48
2023/05/18 01:01:18;;;;;;;4.28;1.58;;;7.60;99.90;;;;;;4993399;28;20058;-50
2023/05/18 01:03:43;;;;;;;6.03;1.83;;;7.60;99.90;;;;;;4993573;28;20049;-49
2023/05/18 01:06:11;;;;;;;5.70;2.40;;;7.50;99.90;;;;;;4993489;28;20494;-48
2023/05/18 01:08:37;;;;;;;4.77;1.60;;;7.50;99.90;;;;;;4993571;28;20034;-51
2023/05/18 01:11:10;;;;;;;3.33;1.40;;;7.50;99.90;;;;;;4993809;28;20041;-49
2023/05/18 01:13:50;;;;;;;4.40;1.33;;;7.50;99.90;;;;;;4993823;28;20467;-49
2023/05/18 01:16:22;;;;;;;5.00;1.33;;;7.40;99.90;;;;;;4993765;28;20026;-49
2023/05/18 01:18:59;;;;;;;6.53;1.70;;;7.40;99.90;;;;;;4993401;28;20044;-51
2023/05/18 01:21:41;;;;;;;3.20;1.40;;;7.40;99.90;;;;;;4992953;28;20030;-49
2023/05/18 01:24:34;;;;;;;7.30;1.33;;;7.40;99.90;;;;;;4993000;28;20120;-50
2023/05/18 01:27:03;;;;;;;4.10;1.70;;;7.40;99.90;;;;;;4987050;28;20053;-50
2023/05/18 01:29:29;;;;;;;3.13;1.47;;;7.30;99.90;;;;;;4993224;28;20023;-50
2023/05/18 01:31:57;;;;;;;7.77;2.10;;;7.30;99.90;;;;;;4991632;28;20547;-49
2023/05/18 01:34:22;;;;;;;3.93;1.63;;;7.20;99.90;;;;;;4991623;28;20034;-48
2023/05/18 01:36:48;;;;;;;5.90;1.60;;;7.20;99.90;;;;;;4993093;28;20041;-48
2023/05/18 01:39:14;;;;;;;5.43;1.50;;;7.10;99.90;;;;;;4991666;28;20034;-48
2023/05/18 01:41:50;;;;;;;4.30;1.37;;;7.10;99.90;;;;;;4992732;28;20039;-48
2023/05/18 01:44:32;;;;;;;4.43;1.40;;;7.10;99.90;;;;;;4991681;28;20053;-49
2023/05/18 01:47:05;;;;;;;3.43;1.43;;;7.00;99.90;;;;;;4991441;28;20026;-49
2023/05/18 01:49:42;;;;;;;7.10;1.97;;;7.00;99.90;;;;;;4992895;28;20117;-49
2023/05/18 01:52:19;;;;;;;3.93;1.50;;;6.90;99.90;;;;;;4992604;28;20464;-48
2023/05/18 01:54:51;;;;;;;4.17;1.43;;;6.90;99.90;;;;;;4992790;28;20188;-50
2023/05/18 01:57:19;;;;;;;5.43;1.63;;;6.90;99.90;;;;;;4992753;28;20117;-48
2023/05/18 01:59:45;;;;;;;8.80;1.87;;;6.90;99.90;;;;;;4991401;28;20416;-48
2023/05/18 02:02:11;;;;;;;9.23;2.00;;;6.90;99.90;;;;;;4990887;28;20073;-51
2023/05/18 02:04:37;;;;;;;5.63;2.03;;;6.80;99.90;;;;;;4991385;28;20057;-49
2023/05/18 02:07:03;;;;;;;6.37;1.43;;;6.80;99.90;;;;;;4991117;28;20066;-48
2023/05/18 02:09:29;;;;;;;6.90;2.10;;;6.70;99.90;;;;;;4991153;28;20440;-50
2023/05/18 02:11:55;;;;;;;4.43;1.57;;;6.70;99.90;;;;;;4990693;28;20065;-49
2023/05/18 02:14:23;;;;;;;3.50;1.53;;;6.70;99.90;;;;;;4992527;28;20372;-48
2023/05/18 02:16:51;;;;;;;5.00;1.50;;;6.70;99.90;;;;;;4991133;28;20030;-50
2023/05/18 02:19:20;;;;;;;4.33;1.70;;;6.60;99.90;;;;;;4992726;28;20038;-48
2023/05/18 02:21:46;;;;;;;4.77;2.07;;;6.60;99.90;;;;;;4991019;28;20376;-48
2023/05/18 02:24:12;;;;;;;9.80;1.63;;;6.60;99.90;;;;;;4992123;28;20027;-48
2023/05/18 02:26:38;;;;;;;6.03;1.53;;;6.50;99.90;;;;;;4990805;28;20030;-49
2023/05/18 02:29:10;;;;;;;4.50;2.00;;;6.40;99.90;;;;;;4992075;28;20114;-49
2023/05/18 02:31:37;;;;;;;4.03;1.80;;;6.50;99.90;;;;;;4990563;28;20042;-47
2023/05/18 02:34:03;;;;;;;7.77;1.77;;;6.50;99.90;;;;;;4990762;28;20491;-47
2023/05/18 02:36:38;;;;;;;8.53;2.17;;;6.50;99.90;;;;;;4992144;28;20062;-48
2023/05/18 02:39:05;;;;;;;8.00;2.07;;;6.40;99.90;;;;;;4990864;28;20633;-48
2023/05/18 02:41:35;;;;;;;6.20;2.17;;;6.50;99.90;;;;;;4990555;28;20057;-48
2023/05/18 02:44:02;;;;;;;3.90;1.90;;;6.40;99.90;;;;;;4990503;28;20096;-48
2023/05/18 02:46:28;;;;;;;8.23;2.67;;;6.40;99.90;;;;;;4991873;28;20042;-49
2023/05/18 02:48:55;;;;;;;8.67;2.57;;;6.40;99.90;;;;;;4992129;28;20029;-48
2023/05/18 02:51:21;;;;;;;9.70;2.57;;;6.40;99.90;;;;;;4990432;28;20494;-49
2023/05/18 02:53:48;;;;;;;5.50;2.07;;;6.40;99.90;;;;;;4990451;28;20504;-48
2023/05/18 02:56:16;;;;;;;7.27;2.20;;;6.40;99.90;;;;;;4990727;28;20022;-51
2023/05/18 02:58:56;;;;;;;8.50;2.30;;;6.40;99.90;;;;;;4991069;28;20041;-48
2023/05/18 03:01:27;;;;;;;8.87;2.50;;;6.40;99.90;;;;;;4990305;28;20062;-48
2023/05/18 03:03:56;;;;;;;7.60;2.57;;;6.40;99.90;;;;;;4990582;28;20030;-48
2023/05/18 03:06:25;;;;;;;8.13;2.30;;;6.40;99.90;;;;;;4990163;28;20491;-48
2023/05/18 03:08:53;;;;;;;6.90;2.38;;;6.40;99.90;;;;;;4990418;28;20029;-48
2023/05/18 03:11:23;;;;;;;5.50;2.60;;;6.30;99.90;;;;;;4990200;28;20454;-49
2023/05/18 03:13:49;;;;;;;7.27;2.53;;;6.30;99.90;;;;;;4990136;28;20048;-47
2023/05/18 03:16:15;;;;;;;9.10;2.40;;;6.30;99.90;;;;;;4990318;28;20041;-50
2023/05/18 03:18:41;;;;;;;4.50;2.27;;;6.30;99.90;;;;;;4991491;28;20403;-51
2023/05/18 03:21:07;;;;;;;8.07;2.87;;;6.30;99.90;;;;;;4989923;28;20034;-51
2023/05/18 03:23:33;;;;;;;9.43;2.60;;;6.20;99.90;;;;;;4991184;28;20027;-47
2023/05/18 03:26:02;;;;;;;10.77;2.70;;;6.20;99.90;;;;;;4990083;28;20674;-47
2023/05/18 03:28:29;;;;;;;6.93;2.47;;;6.20;99.90;;;;;;4990097;28;20031;-47
2023/05/18 03:30:56;;;;;;;8.17;2.63;;;6.20;99.90;;;;;;4989823;28;20026;-48
2023/05/18 03:33:22;;;;;;;7.50;2.77;;;6.20;99.90;;;;;;4989705;28;20058;-52
2023/05/18 03:35:48;;;;;;;9.10;3.07;;;6.20;99.90;;;;;;4991264;28;20497;-47
2023/05/18 03:38:14;;;;;;;8.67;3.03;;;6.20;99.90;;;;;;4990119;28;20223;-50
2023/05/18 03:40:44;;;;;;;7.17;2.70;;;6.10;99.90;;;;;;4989730;28;20488;-51
2023/05/18 03:43:10;;;;;;;6.07;2.40;;;6.20;99.90;;;;;;4990990;28;20061;-48
2023/05/18 03:45:38;;;;;;;5.70;2.73;;;6.20;99.90;;;;;;4989780;28;20034;-48
2023/05/18 03:48:05;;;;;;;10.17;2.13;;;6.20;99.90;;;;;;4989973;28;20069;-51
2023/05/18 03:50:31;;;;;;;6.20;2.30;;;6.10;99.90;;;;;;4993210;28;20054;-50
2023/05/18 03:52:58;;;;;;;8.63;2.70;;;6.20;99.90;;;;;;4994626;28;20117;-52
2023/05/18 03:55:25;;;;;;;4.23;2.10;;;6.20;99.90;;;;;;4993586;28;20173;-49
2023/05/18 03:57:52;;;;;;;6.17;2.30;;;6.20;99.90;;;;;;4993662;28;20502;-48
2023/05/18 04:00:18;;;;;;;6.70;2.40;;;6.20;99.90;;;;;;4993265;28;20038;-50
2023/05/18 04:02:45;;;;;;;5.83;2.60;;;6.20;99.90;;;;;;4994843;28;20026;-50
2023/05/18 04:05:14;;;;;;;;;;;6.20;99.90;;;;;;4993790;28;20484;-48
2023/05/18 04:07:42;;;;;;;6.10;2.90;;;6.20;99.90;;;;;;4994810;28;20020;-48
2023/05/18 04:10:10;;;;;;;9.93;2.78;;;6.20;99.90;;;;;;4993553;28;20499;-48
2023/05/18 04:12:37;;;;;;;9.33;2.70;;;6.30;99.90;;;;;;4994216;28;20058;-48
2023/05/18 04:15:03;;;;;;;6.87;2.40;;;6.30;99.90;;;;;;4993263;28;20030;-48
2023/05/18 04:17:28;;;;;;;6.23;2.53;;;6.30;99.90;;;;;;4993297;28;20036;-48
2023/05/18 04:19:54;;;;;;;6.20;2.40;;;6.40;99.90;;;;;;4993148;28;20410;-49
2023/05/18 04:22:20;;;;;;;6.70;2.40;;;6.50;99.90;;;;;;4994102;28;20022;-48
2023/05/18 04:24:47;;;;;;;9.87;2.80;;;6.50;99.90;;;;;;4993310;28;20065;-49
2023/05/18 04:27:13;;;;;;;10.87;2.67;;;6.50;99.90;;;;;;4993027;28;20049;-48
2023/05/18 04:29:42;;;;;;;6.63;2.67;;;6.50;99.90;;;;;;4994355;28;20034;-48
2023/05/18 04:32:09;;;;;;;5.85;2.53;;;6.60;99.90;;;;;;4992618;28;20038;-48
2023/05/18 04:34:36;;;;;;;5.90;2.30;;;6.60;99.90;;;;;;4992957;28;20034;-48
2023/05/18 04:37:05;;;;;;;7.30;2.67;;;6.70;99.90;;;;;;4992963;28;20026;-48
2023/05/18 04:39:33;;;;;;;6.13;2.40;;;6.70;99.90;;;;;;4992941;28;20027;-48
2023/05/18 04:42:00;;;;;;;10.88;2.67;;;6.70;99.90;;;;;;4992507;28;20038;-47
2023/05/18 04:44:28;;;;;;;7.00;2.73;;;6.80;99.90;;;;;;4993971;28;20471;-47
2023/05/18 04:46:56;;;;;;;5.53;2.60;;;6.80;99.90;;;;;;4992902;28;20164;-48
2023/05/18 04:49:25;;;;;;;6.23;2.20;;;6.90;99.90;;;;;;4992630;28;20035;-47
2023/05/18 04:51:54;;;;;;;7.20;2.53;;;6.90;99.90;;;;;;4992312;28;20030;-48
2023/05/18 04:54:24;;;;;;;7.50;2.37;;;6.90;99.90;;;;;;4992521;28;20447;-48
2023/05/18 04:56:51;;;;;;;4.63;2.17;;;7.00;99.90;;;;;;4992941;28;20496;-48
2023/05/18 04:59:18;;;;;;;5.50;2.50;;;7.00;99.90;;;;;;4992663;28;20031;-49
2023/05/18 05:01:44;;;;;;;5.80;2.80;;;7.00;99.90;;;;;;4992434;28;20443;-49
2023/05/18 05:04:11;;;;;;;8.47;2.33;;;7.10;99.90;;;;;;4992274;28;20062;-50
2023/05/18 05:06:36;;;;;;;6.70;2.47;;;7.20;99.90;;;;;;4992323;28;20069;-49
2023/05/18 05:09:03;;;;;;;8.53;2.50;;;7.40;99.90;;;;;;4993707;28;20022;-51
2023/05/18 05:11:28;;;;;;;7.70;2.50;;;7.40;99.90;;;;;;4993729;28;20447;-50
2023/05/18 05:13:56;;;;;;;6.13;2.57;;;7.50;99.90;;;;;;4992224;28;20054;-50
2023/05/18 05:16:21;;;;;;;5.13;2.47;;;7.40;99.90;;;;;;4993522;28;20491;-48
2023/05/18 05:18:47;;;;;;;5.93;3.00;;;7.50;99.90;;;;;;4992299;28;20535;-50
2023/05/18 05:21:14;;;;;;;7.90;2.60;;;7.50;99.90;;;;;;4991843;28;20030;-49
2023/05/18 05:23:40;;;;;;;9.13;3.00;;;7.50;99.90;;;;;;4991846;28;20026;-49
2023/05/18 05:26:07;;;;;;;9.93;3.00;;;7.60;99.90;;;;;;4992231;28;20026;-50
2023/05/18 05:28:33;;;;;;;7.60;2.70;;;7.60;99.90;;;;;;4992061;28;20030;-48
2023/05/18 05:30:59;;;;;;;4.97;2.43;;;7.60;99.90;;;;;;4991954;28;20037;-47
2023/05/18 05:33:24;;;;;;;7.03;2.60;;;7.60;99.90;;;;;;4993026;28;20030;-48
2023/05/18 05:35:50;;;;;;;6.63;2.60;;;7.70;99.90;;;;;;4991977;28;20030;-47
2023/05/18 05:38:16;;;;;;;5.77;2.40;;;7.70;99.90;;;;;;4991867;28;20570;-48
2023/05/18 05:40:42;;;;;;;6.33;2.33;;;7.80;99.90;;;;;;4991478;28;20065;-48
2023/05/18 05:43:07;;;;;;;7.80;2.37;;;7.80;99.90;;;;;;4993179;28;20058;-48
2023/05/18 05:45:34;;;;;;;5.37;2.43;;;7.90;99.90;;;;;;4992085;28;20164;-48
2023/05/18 05:48:03;;;;;;;6.15;2.35;;;8.00;99.90;;;;;;4991836;28;20113;-49
2023/05/18 05:50:30;;;;;;;6.90;3.10;;;8.00;99.90;;;;;;4991851;28;20043;-51
2023/05/18 05:52:59;;;;;;;5.63;2.27;;;8.10;99.90;;;;;;4991672;28;20403;-49
2023/05/18 05:55:25;;;;;;;8.43;2.80;;;8.20;99.90;;;;;;4991733;28;20054;-48
2023/05/18 05:57:52;;;;;;;7.93;2.97;;;8.30;99.90;;;;;;4991672;28;20027;-48
2023/05/18 06:00:19;;;;;;;6.50;2.20;;;8.40;99.90;;;;;;4991125;28;20092;-49
2023/05/18 06:02:50;;;;;;;4.30;2.23;;;8.40;99.90;;;;;;4991223;28;20026;-48
2023/05/18 06:05:23;;;;;;;8.93;2.40;;;8.50;99.90;;;;;;4991339;28;20046;-49
2023/05/18 06:07:50;;;;;;;5.37;2.70;;;8.60;99.90;;;;;;4991689;28;20399;-48
2023/05/18 06:10:16;;;;;;;4.73;2.60;;;8.70;99.90;;;;;;4991166;28;20125;-48
2023/05/18 06:12:42;;;;;;;4.70;2.13;;;8.80;99.90;;;;;;4990648;28;20571;-48
2023/05/18 06:15:08;;;;;;;6.60;2.33;;;8.90;99.90;;;;;;4991216;28;20450;-48
2023/05/18 06:17:37;;;;;;;3.40;1.77;;;8.90;99.90;;;;;;4990903;28;20038;-49
2023/05/18 06:20:05;;;;;;;5.60;2.23;;;9.10;99.90;;;;;;4990781;28;20391;-48
2023/05/18 06:22:31;;;;;;;5.50;2.00;;;9.20;99.90;;;;;;4990605;28;20041;-48
2023/05/18 06:25:16;;;;;;;6.20;2.07;;;9.30;99.90;;;;;;4991021;28;20109;-48
2023/05/18 06:28:14;;;;;;;7.13;2.50;;;9.40;99.90;;;;;;4983507;28;20411;-49
2023/05/18 06:30:44;;;;;;;7.43;2.10;;;9.60;99.90;;;;;;4990741;28;20027;-48
2023/05/18 06:33:20;;;;;;;5.07;2.03;;;9.70;99.90;;;;;;4990500;28;20042;-48
2023/05/18 06:35:45;;;;;;;5.77;1.97;;;9.80;99.90;;;;;;4990868;28;20131;-50
2023/05/18 06:38:12;;;;;;;6.90;2.03;;;9.90;99.90;;;;;;4991924;28;20037;-50
2023/05/18 06:40:37;;;;;;;4.10;1.70;;;10.00;99.90;;;;;;4990382;28;20034;-48
2023/05/18 06:43:03;;;;;;;6.87;1.90;;;10.20;99.90;;;;;;4990481;28;20108;-49
2023/05/18 06:45:36;;;;;;;4.93;1.97;;;10.30;99.90;;;;;;4990779;28;20171;-49
2023/05/18 06:48:10;;;;;;;6.17;1.70;;;10.30;99.90;;;;;;4990572;28;20390;-49
2023/05/18 06:50:36;;;;;;;5.03;2.10;;;10.50;99.90;;;;;;4990260;28;20026;-50
2023/05/18 06:53:03;;;;;;;6.93;3.00;;;10.60;99.90;;;;;;4990029;28;20030;-50
2023/05/18 06:55:29;;;;;;;4.87;1.77;;;10.80;99.90;;;;;;4990241;28;20065;-50
2023/05/18 06:57:57;;;;;;;6.73;2.43;;;10.90;99.90;;;;;;4990456;28;20038;-49
2023/05/18 07:00:23;;;;;;;6.60;1.50;;;11.10;99.90;;;;;;4990082;28;20395;-48
2023/05/18 07:02:50;;;;;;;6.50;1.80;;;11.20;99.90;;;;;;4990066;28;20023;-50
2023/05/18 07:05:17;;;;;;;4.23;1.50;;;11.30;99.90;;;;;;4990288;28;20495;-52
2023/05/18 07:07:43;;;;;;;4.97;1.50;;;11.40;99.90;;;;;;4991493;28;20030;-49
2023/05/18 07:10:09;;;;;;;5.03;1.60;;;11.30;99.90;;;;;;4991366;28;20026;-53
2023/05/18 07:12:35;;;;;;;4.53;2.10;;;11.40;99.90;;;;;;4991442;28;20034;-52
2023/05/18 07:15:01;;;;;;;4.70;1.67;;;11.40;99.90;;;;;;4991735;28;20038;-53
2023/05/18 07:17:27;;;;;;;6.77;1.90;;;11.60;99.90;;;;;;4991493;28;20031;-48
2023/05/18 07:19:52;;;;;;;5.43;1.67;;;11.70;99.90;;;;;;4991324;28;20030;-51
2023/05/18 07:22:18;;;;;;;4.27;1.60;;;11.80;99.90;;;;;;4990867;28;20145;-51
2023/05/18 07:24:44;;;;;;;4.37;1.90;;;11.80;99.90;;;;;;4992233;28;20037;-51
2023/05/18 07:27:09;;;;;;;6.27;2.20;;;11.90;99.90;;;;;;4995486;28;20395;-49
2023/05/18 07:29:35;;;;;;;9.80;2.10;;;12.10;99.90;;;;;;4995336;28;20027;-51
2023/05/18 07:32:01;;;;;;;4.00;2.10;;;12.20;99.90;;;;;;4994868;28;20561;-50
2023/05/18 07:34:27;;;;;;;6.47;1.60;;;12.20;99.90;;;;;;4995314;28;20039;-54
2023/05/18 07:36:52;;;;;;;5.13;1.57;;;12.20;99.90;;;;;;4995193;28;20034;-53
2023/05/18 07:39:18;;;;;;;7.40;1.80;;;12.30;99.90;;;;;;4995342;28;20042;-51
2023/05/18 07:41:46;;;;;;;4.93;1.33;;;12.30;99.90;;;;;;4994971;28;20034;-50
2023/05/18 07:44:12;;;;;;;6.10;1.93;;;12.30;99.90;;;;;;4995037;28;20030;-50
2023/05/18 07:46:38;;;;;;;4.27;1.93;;;12.40;99.90;;;;;;4995035;28;20034;-53
2023/05/18 07:49:04;;;;;;;6.22;1.33;;;12.50;99.90;;;;;;4995178;28;20038;-48
2023/05/18 07:51:30;;;;;;;5.10;1.80;;;12.60;99.60;;;;;;4994578;28;20042;-48
2023/05/18 07:53:56;;;;;;;5.88;1.77;;;12.70;99.90;;;;;;4994634;28;20038;-51
2023/05/18 07:56:23;;;;;;;3.60;1.53;;;12.70;99.90;;;;;;4994929;28;20034;-48
2023/05/18 07:58:48;;;;;;;3.25;1.40;;;12.60;99.90;;;;;;4995090;28;20106;-49
2023/05/18 08:01:14;;;;;;;5.18;1.33;;;12.70;99.90;;;;;;4993268;28;20130;-50
2023/05/18 08:03:40;;;;;;;5.28;1.75;;;12.70;99.70;;;;;;4994722;28;20030;-50
2023/05/18 08:06:06;;;;;;;5.53;2.17;;;12.80;99.30;;;;;;4994603;28;20089;-51
2023/05/18 08:08:34;;;;;;;4.45;2.40;;;12.80;98.80;;;;;;4994946;28;20028;-48
2023/05/18 08:11:00;;;;;;;5.50;1.60;;;12.90;99.90;;;;;;4994392;28;20085;-49
2023/05/18 08:13:27;;;;;;;7.57;2.28;;;13.00;99.60;;;;;;4994275;28;20826;-49
2023/05/18 08:15:53;;;;;;;3.60;2.08;;;13.00;99.90;;;;;;4994532;28;20109;-48
2023/05/18 08:18:18;;;;;;;5.88;2.13;;;13.20;99.30;;;;;;4994608;28;20554;-52
2023/05/18 08:20:44;;;;;;;4.93;1.73;;;13.20;97.90;;;;;;4994038;28;20116;-48
2023/05/18 08:23:10;;;;;;;4.97;2.00;;;13.20;99.20;;;;;;4994671;28;20022;-52
2023/05/18 08:25:35;;;;;;;5.43;1.98;;;13.20;99.10;;;;;;4994475;28;20549;-49
2023/05/18 08:28:01;;;;;;;4.97;1.80;;;13.20;99.10;;;;;;4994635;28;20033;-48
2023/05/18 08:30:27;;;;;;;5.32;1.73;;;13.30;98.70;;;;;;4994197;28;20057;-49
2023/05/18 08:32:52;;;;;;;4.18;1.70;;;13.30;99.90;;;;;;4994356;28;20037;-49
2023/05/18 08:35:18;;;;;;;6.43;1.67;;;13.40;98.60;;;;;;4994194;28;20510;-47
2023/05/18 08:37:45;;;;;;;6.57;2.10;;;13.50;99.90;;;;;;4994289;28;20022;-51
2023/05/18 08:40:11;;;;;;;9.75;2.05;;;13.50;99.50;;;;;;4993991;28;20037;-50
2023/05/18 08:42:56;;;;;;;7.57;2.63;;;13.40;97.80;;;;;;4993988;28;20373;-49
2023/05/18 08:45:54;;;;;;;4.55;2.05;;;13.50;99.70;;;;;;4993946;28;20034;-49
2023/05/18 08:48:22;;;;;;;4.88;1.85;;;13.50;97.10;;;;;;4950618;28;20042;-48
2023/05/18 08:50:52;;;;;;;7.78;1.77;;;13.60;97.00;;;;;;4993727;28;20038;-51
2023/05/18 08:53:23;;;;;;;4.05;1.75;;;13.50;97.20;;;;;;4993766;28;20074;-50
2023/05/18 08:55:52;;;;;;;5.45;1.98;;;13.60;97.80;;;;;;4993761;28;20502;-52
2023/05/18 08:58:20;;;;;;;5.85;1.95;;;13.80;99.90;;;;;;4993743;28;20092;-50
2023/05/18 09:00:46;;;;;;;4.95;1.77;;;13.80;97.40;;;;;;4993614;28;20325;-49
2023/05/18 09:03:13;;;;;;;9.32;1.98;;;13.90;98.20;;;;;;4993692;28;20026;-49
2023/05/18 09:05:40;;;;;;;3.72;1.75;;;13.80;99.20;;;;;;4992341;28;20503;-49
2023/05/18 09:08:08;;;;;;;4.90;1.90;;;13.90;97.90;;;;;;4993476;28;20030;-52
2023/05/18 09:10:35;;;;;;;4.22;1.63;;;13.90;96.80;;;;;;4993296;28;20046;-49
2023/05/18 09:13:04;;;;;;;7.82;2.70;;;14.00;98.10;;;;;;4993061;28;20022;-51
2023/05/18 09:15:29;;;;;;;4.22;1.85;;;14.00;97.00;;;;;;4993545;28;20034;-52
2023/05/18 09:17:55;;;;;;;6.00;1.90;;;14.10;98.50;;;;;;4993460;28;20528;-49
2023/05/18 09:20:22;;;;;;;4.10;1.77;;;14.10;97.00;;;;;;4993027;28;20198;-51
2023/05/18 09:22:50;;;;;;;5.93;1.85;;;14.10;96.60;;;;;;4993170;28;20070;-50
2023/05/18 09:25:17;;;;;;;5.55;2.08;;;14.20;98.40;;;;;;4993333;28;20096;-49
2023/05/18 09:27:43;;;;;;;6.68;2.13;;;14.20;95.90;;;;;;4993326;28;20026;-48
2023/05/18 09:30:10;;;;;;;8.50;2.05;;;14.30;95.80;;;;;;4993051;28;20038;-49
2023/05/18 09:32:36;;;;;;;4.75;1.73;;;14.30;97.20;;;;;;4993003;28;20034;-51
2023/05/18 09:35:06;;;;;;;6.68;1.98;;;14.30;99.20;;;;;;4993124;28;20390;-48
2023/05/18 09:37:33;;;;;;;4.93;1.98;;;14.30;97.20;;;;;;4993044;28;20042;-48
2023/05/18 09:40:06;;;;;;;7.78;2.30;;;14.30;95.90;;;;;;4991445;28;20038;-48
2023/05/18 09:42:41;;;;;;;6.78;2.15;;;14.40;98.10;;;;;;4992632;28;20388;-48
2023/05/18 09:45:17;;;;;;;3.67;1.98;;;14.30;95.30;;;;;;4993046;28;20176;-48
2023/05/18 09:47:43;;;;;;;5.47;1.92;;;14.30;95.20;;;;;;4992323;28;20414;-50
2023/05/18 09:50:10;;;;;;;5.85;1.90;;;14.30;96.90;;;;;;4992668;28;20030;-52
2023/05/18 09:52:46;;;;;;;6.50;2.30;;;14.30;95.30;;;;;;4992513;28;20034;-48
2023/05/18 09:55:14;;;;;;;4.15;1.90;;;14.30;95.10;;;;;;4992573;28;20033;-48
2023/05/18 09:57:49;;;;;;;5.75;2.10;;;14.40;95.50;;;;;;4992589;28;20049;-47
2023/05/18 10:00:17;;;;;;;5.63;2.20;;;14.50;95.90;;;;;;4992167;28;20057;-51
2023/05/18 10:02:51;;;;;;;8.07;2.33;;;14.60;95.40;;;;;;4992231;28;20439;-48
2023/05/18 10:05:33;;;;;;;7.40;1.90;;;14.60;96.30;;;;;;4992450;28;20475;-49
2023/05/18 10:07:59;;;;;;;4.38;1.90;;;14.80;96.30;;;;;;4992510;28;20109;-49
2023/05/18 10:10:27;;;;;;;6.20;1.95;;;14.90;94.70;;;;;;4992248;28;20597;-50
2023/05/18 10:12:54;;;;;;;7.68;2.20;;;15.00;94.50;;;;;;4992085;28;20034;-48
2023/05/18 10:15:22;;;;;;;8.70;2.10;;;14.90;93.90;;;;;;4992202;28;20034;-49
2023/05/18 10:17:50;;;;;;;4.25;1.90;;;14.80;95.80;;;;;;4992392;28;20034;-49
2023/05/18 10:20:26;;;;;;;4.63;1.92;;;14.90;93.70;;;;;;4991946;28;20117;-49
2023/05/18 10:22:54;;;;;;;5.63;1.80;;;14.90;94.10;;;;;;4992089;28;20038;-50
2023/05/18 10:25:25;;;;;;;4.47;1.92;;;14.80;94.00;;;;;;4992187;28;20031;-51
2023/05/18 10:27:58;;;;;;;4.82;2.00;;;15.00;95.60;;;;;;4991925;28;20053;-49
2023/05/18 10:30:25;;;;;;;4.93;2.00;;;15.00;95.50;;;;;;4991779;28;20080;-48
2023/05/18 10:32:53;;;;;;;10.25;2.28;;;15.10;93.50;;;;;;4991767;28;20030;-51
2023/05/18 10:35:22;;;;;;;5.68;1.90;;;15.00;95.10;;;;;;4992427;28;20026;-49
2023/05/18 10:37:51;;;;;;;5.40;2.40;;;15.10;94.20;;;;;;4992154;28;20490;-52
2023/05/18 10:40:20;;;;;;;4.90;1.90;;;15.20;92.80;;;;;;4991596;28;20034;-49
2023/05/18 10:42:47;;;;;;;5.60;2.17;;;15.30;92.70;;;;;;4992069;28;20041;-50
2023/05/18 10:45:14;;;;;;;5.93;2.28;;;15.40;93.00;;;;;;4991926;28;20034;-49
2023/05/18 10:47:42;;;;;;;5.88;2.00;;;15.60;93.40;;;;;;4992047;28;20045;-50
2023/05/18 10:50:08;;;;;;;6.95;2.53;;;15.60;92.60;;;;;;4991683;28;20122;-48
2023/05/18 10:52:36;;;;;;;10.75;3.55;;;15.60;93.20;;;;;;4991397;28;20459;-51
2023/05/18 10:55:03;;;;;;;8.80;3.22;;;15.70;92.30;;;;;;4992177;28;20038;-50
2023/05/18 10:57:36;;;;;;;5.97;2.53;;;15.60;92.40;;;;;;4991605;28;20038;-52
2023/05/18 11:00:06;;;;;;;8.38;2.88;;;15.70;92.10;;;;;;4990850;28;20030;-50
2023/05/18 11:02:32;;;;;;;5.95;2.17;;;15.60;91.50;;;;;;4990069;28;20065;-50
2023/05/18 11:04:58;;;;;;;5.88;2.03;;;15.40;91.00;;;;;;4991504;28;20034;-51
2023/05/18 11:07:27;;;;;;;5.05;2.00;;;15.20;93.60;;;;;;4991455;28;20023;-49
2023/05/18 11:09:53;;;;;;;5.50;2.20;;;15.20;93.00;;;;;;4991720;28;20037;-48
2023/05/18 11:12:22;;;;;;;4.95;2.20;;;15.20;91.90;;;;;;4991374;28;20038;-50
2023/05/18 11:14:51;;;;;;;5.85;2.33;;;15.30;92.20;;;;;;4991662;28;20040;-48
2023/05/18 11:17:24;;;;;;;6.90;2.40;;;15.40;93.80;;;;;;4991709;28;20030;-48
2023/05/18 11:20:11;;;;;;;5.50;2.55;;;15.60;93.80;;;;;;4991590;28;20202;-52
2023/05/18 11:22:47;;;;;;;4.82;2.40;;;15.50;93.60;;;;;;4991397;28;20484;-51
2023/05/18 11:25:31;;;;;;;8.43;2.45;;;15.40;92.70;;;;;;4991550;28;20044;-48
2023/05/18 11:28:03;;;;;;;5.88;2.33;;;15.40;93.00;;;;;;4991749;28;20475;-51
2023/05/18 11:30:32;;;;;;;13.48;2.65;;;15.50;92.40;;;;;;4991222;28;20035;-47
2023/05/18 11:33:21;;;;;;;4.93;2.00;;;15.40;92.50;;;;;;4991338;28;20027;-48
2023/05/18 11:36:08;;;;;;;6.00;2.22;;;15.50;92.30;;;;;;4991571;28;20396;-51
2023/05/18 11:39:04;;;;;;;8.77;2.50;;;15.50;91.90;;;;;;4991241;28;20496;-50
2023/05/18 11:41:43;;;;;;;5.85;2.60;;;15.50;93.10;;;;;;4989911;28;20041;-48
2023/05/18 11:44:13;;;;;;;6.60;2.67;;;15.50;91.40;;;;;;4991111;28;20057;-48
2023/05/18 11:46:51;;;;;;;6.47;1.80;;;15.60;91.90;;;;;;4991297;28;20022;-51
2023/05/18 11:49:18;;;;;;;6.15;2.10;;;15.60;91.40;;;;;;4991291;28;20031;-50
2023/05/18 11:52:12;;;;;;;7.30;2.40;;;15.60;91.90;;;;;;4990943;28;20060;-48
2023/05/18 11:54:42;;;;;;;4.82;1.80;;;15.60;90.40;;;;;;4991073;28;20030;-48
2023/05/18 11:57:09;;;;;;;3.60;1.75;;;15.80;91.00;;;;;;4991426;28;20395;-51
2023/05/18 11:59:46;;;;;;;5.95;2.10;;;15.90;91.80;;;;;;4991091;28;20053;-49
2023/05/18 12:02:18;;;;;;;5.93;2.13;;;15.90;90.70;;;;;;4990771;28;20030;-48
2023/05/18 12:04:49;;;;;;;4.70;2.17;;;15.90;90.70;;;;;;4991111;28;20463;-48
2023/05/18 12:07:18;;;;;;;4.68;2.20;;;15.80;90.80;;;;;;4991320;28;20031;-48
2023/05/18 12:09:45;;;;;;;6.80;1.90;;;15.80;91.40;;;;;;4990964;28;20026;-48
2023/05/18 12:12:15;;;;;;;6.40;2.03;;;15.80;92.00;;;;;;4993656;28;20472;-49
2023/05/18 12:14:42;;;;;;;6.47;1.90;;;15.80;90.00;;;;;;4994680;28;20482;-50
2023/05/18 12:17:09;;;;;;;3.67;1.75;;;15.80;90.10;;;;;;4995012;28;20075;-48
2023/05/18 12:19:46;;;;;;;5.22;2.00;;;15.80;88.60;;;;;;4994497;28;20034;-50
2023/05/18 12:22:12;;;;;;;5.72;2.03;;;15.90;90.40;;;;;;4993970;28;20034;-48
2023/05/18 12:24:39;;;;;;;4.47;1.60;;;16.00;90.60;;;;;;4994208;28;20033;-49
2023/05/18 12:27:07;;;;;;;7.68;1.85;;;16.20;91.70;;;;;;4994288;28;20034;-52
2023/05/18 12:29:36;;;;;;;3.65;2.13;;;16.30;90.40;;;;;;4994431;28;20034;-48
2023/05/18 12:32:07;;;;;;;4.57;1.38;;;16.30;88.30;;;;;;4994057;28;20074;-47
2023/05/18 12:34:33;;;;;;;5.88;1.80;;;16.30;87.20;;;;;;4994089;28;20027;-48
2023/05/18 12:36:58;;;;;;;3.28;1.58;;;16.20;89.90;;;;;;4994066;28;20382;-51
2023/05/18 12:39:24;;;;;;;4.95;2.17;;;16.30;91.40;;;;;;4994030;28;20034;-50
2023/05/18 12:41:50;;;;;;;4.88;1.95;;;16.20;90.90;;;;;;4993716;28;20073;-49
2023/05/18 12:44:16;;;;;;;8.82;2.22;;;16.30;90.70;;;;;;4994012;28;20026;-50
2023/05/18 12:46:42;;;;;;;6.00;1.98;;;16.40;90.30;;;;;;4993970;28;20394;-50
2023/05/18 12:49:08;;;;;;;4.88;1.92;;;16.40;90.70;;;;;;4993947;28;20074;-51
2023/05/18 12:51:36;;;;;;;5.60;1.95;;;16.40;87.60;;;;;;4994072;28;20073;-49
2023/05/18 12:54:04;;;;;;;4.43;1.80;;;16.40;89.30;;;;;;4993860;28;20034;-49
2023/05/18 12:56:58;;;;;;;4.28;1.73;;;16.30;87.50;;;;;;4993988;28;20140;-49
2023/05/18 12:59:24;;;;;;;3.50;1.92;;;16.30;87.00;;;;;;4994139;28;20454;-49